Search for airport 
image banner adimage banner adimage banner ad
image banner ad

4PA2 - Warner-Lambert

Located in Lititz, United States

ICAO - 4PA2, IATA -

Data provided by Airmate  

General information

Coordinates: N40°9'8" W76°18'21"
Elevation is 430 feet MSL.
Magnetic variation is -11° East
View others Airports in Pennsylvania

Operational data

Special qualification required
Current time UTC:
Current local time:
Weather at : KLNS - Lancaster ( 3 km )
METAR: KLNS 071253Z 10005KT 10SM BKN110 12/03 A2991 RMK AO2 SLP127 T01170028
TAF: KLNS 071127Z 0712/0812 10006KT P6SM SCT100 BKN250 FM071500 14007KT P6SM OVC100 FM071900 VRB05KT 6SM -RA OVC050 FM072300 31005KT 5SM -RA BR OVC035 FM080700 26006KT P6SM BKN035
View NOTAMs / SUP AIP / TFR affecting this airport [VIEW]
Communications frequencies: [VIEW]

Runways:

Airport contact information

Address: Lititz United States

Satellite view of 4PA2